Latest Coastal Weather Observations for Port Macquarie Airport

IDN60701

Issued at 11:01 am EST Tuesday 23 May 2017 (issued every 10 minutes, with the page automatically refreshed every 10 minutes)

About coastal observations | Map of coastal stations | Coastal observations for NSW | Marine services | Other Formats
Station Details ID: 060139 Name: PORT MACQUARIE AIRPORT AWS Lat: -31.43 Lon: 152.87 Height: 4.2 m
Data from the previous 72 hours. | See also: Recent months at Port Macquarie Airport
Date/Time
EST
Temp
°C
Wind Pressure Rain since
9am
mm
Weather Cloud Vis
km
Sea
Height
m
Swell
Dir  Spd
kts
Gust
kts
hPa Trend Height
m
Period
s
Dir
23/11:00am 21.7 NNW 4 6 1021.4 - 0.0 - - 10 - - - -
23/10:30am 21.0 NNW 4 5 1021.8 - 0.0 - - 10 - - - -
23/10:00am 19.5 WNW 5 7 1022.2 - 0.0 - - 10 - - - -
23/09:30am 18.6 WNW 5 7 1022.4 - 0.0 - Partly cloudy 10 - - - -
23/09:00am 17.8 NNW 4 6 1022.6 - 1.2 - - 10 - - - -
23/08:30am 16.7 WSW 3 5 1022.5 - 1.2 - - 10 - - - -
23/08:00am 16.0 W 5 7 1022.5 - 1.2 - - 10 - - - -
23/07:48am 15.8 W 5 7 1022.5 - 1.2 - Partly cloudy 10 - - - -
23/07:30am 15.7 WNW 5 7 1022.3 - 1.2 - Partly cloudy 10 - - - -
23/07:21am 15.6 WNW 5 8 1022.2 - 1.2 - Cloudy 10 - - - -
23/07:00am 15.5 W 5 7 1022.1 - 1.2 - Cloudy 2 - - - -
23/06:30am 15.4 NW 3 5 1021.9 - 1.2 - Cloudy 0.3 - - - -
23/06:00am 15.5 WNW 5 7 1021.5 - 1.2 - Cloudy 0.4 - - - -
23/05:30am 15.5 W 5 7 1021.4 - 1.2 - Cloudy 0.3 - - - -
23/05:00am 15.5 SW 3 5 1021.2 - 1.2 - Cloudy 0.2 - - - -
23/04:30am 15.3 SSW 3 4 1021.1 - 1.0 - Cloudy 0.2 - - - -
23/04:00am 15.6 WSW 2 4 1021.0 - 1.0 - Cloudy 0.2 - - - -
23/03:30am 15.3 WNW 2 5 1021.2 - 1.0 - Cloudy 0.3 - - - -
23/03:00am 15.2 NW 1 3 1021.1 - 1.0 - Mostly cloudy 0.3 - - - -
23/02:30am 14.8 W 3 4 1021.2 - 1.0 - Partly cloudy 1 - - - -
23/02:29am 14.9 W 3 4 1021.2 - 1.0 - Partly cloudy 1 - - - -
23/02:00am 13.9 CALM 0 0 1021.3 - 1.0 - - 0.1 - - - -
23/01:30am 14.4 CALM 0 0 1021.6 - 1.0 - Partly cloudy 2 - - - -
23/01:00am 15.0 CALM 0 0 1021.8 - 1.0 - Partly cloudy 2 - - - -
23/12:36am 15.0 CALM 0 0 1022.0 - 1.0 - Partly cloudy 4 - - - -
23/12:30am 15.3 CALM 0 0 1022.0 - 1.0 - Partly cloudy 10 - - - -
23/12:00am 15.9 WNW 4 5 1022.3 - 1.0 - Mostly clear 10 - - - -
 
Date/Time
EST
Temp
°C
Wind Pressure Rain since
9am
mm
Weather Cloud Vis
km
Sea
Height
m
Swell
Dir  Spd
kts
Gust
kts
hPa Trend Height
m
Period
s
Dir
22/11:59pm 15.9 WNW 4 5 1022.3 - 1.0 - Partly cloudy 10 - - - -
22/11:30pm 16.2 SW 3 4 1022.4 - 1.0 - Partly cloudy 4 - - - -
22/11:23pm 16.3 CALM 0 4 1022.4 - 1.0 - Partly cloudy 5 - - - -
22/11:00pm 16.8 WSW 3 5 1022.5 - 1.0 - Partly cloudy 10 - - - -
22/10:30pm 17.2 SW 3 4 1022.6 - 1.0 - - 10 - - - -
22/10:00pm 17.5 SW 2 4 1022.7 - 1.0 - Partly cloudy 10 - - - -
22/09:30pm 18.0 W 4 5 1022.7 - 0.8 - Partly cloudy 10 - - - -
22/09:00pm 18.0 NW 6 7 1022.8 - 0.8 - Cloudy 10 - - - -
22/08:30pm 18.0 NW 5 6 1022.6 - 0.8 - Partly cloudy 10 - - - -
22/08:00pm 17.7 NW 5 5 1022.4 - 0.8 - Partly cloudy 10 - - - -
22/07:30pm 17.7 W 2 4 1022.1 - 0.8 - Partly cloudy 10 - - - -
22/07:00pm 17.8 CALM 0 2 1021.9 - 0.8 - Partly cloudy 10 - - - -
22/06:30pm 17.9 SW 4 5 1021.9 - 0.8 - Partly cloudy 10 - - - -
22/06:00pm 17.9 WSW 3 4 1021.7 - 0.8 - Mostly cloudy 10 - - - -
22/05:30pm 18.5 S 4 4 1021.3 - 0.8 - Partly cloudy 10 - - - -
22/05:00pm 19.4 SSW 4 5 1021.1 - 0.8 - Partly cloudy 10 - - - -
22/04:30pm 20.4 S 4 6 1020.8 - 0.8 - Partly cloudy 10 - - - -
22/04:00pm 21.2 SSE 6 9 1020.8 - 0.8 - - 10 - - - -
22/03:30pm 21.8 SE 7 11 1020.6 - 0.8 - - 10 - - - -
22/03:00pm 22.0 SSE 9 12 1020.8 - 0.8 - Partly cloudy 10 - - - -
22/02:30pm 22.0 SSE 7 10 1020.8 - 0.8 - - 10 - - - -
22/02:00pm 21.8 SE 6 9 1020.8 - 0.8 - Partly cloudy 10 - - - -
22/01:30pm 21.6 SE 6 8 1020.9 - 0.8 - Partly cloudy 10 - - - -
22/01:00pm 21.9 SSE 8 11 1021.1 - 0.8 - Partly cloudy 10 - - - -
22/12:30pm 21.5 SSE 4 6 1021.5 - 0.8 - Partly cloudy 10 - - - -
22/12:00pm 20.6 SE 4 5 1021.8 - 0.8 Recent precip. Cloudy 10 - - - -
22/11:30am 20.1 S 6 9 1022.4 - 0.6 - Partly cloudy 10 - - - -
22/11:00am 21.4 S 5 7 1022.8 - 0.0 - Partly cloudy 10 - - - -
22/10:30am 21.2 SSW 6 7 1023.1 - 0.0 - Partly cloudy 10 - - - -
22/10:00am 21.0 SW 7 10 1023.3 - 0.0 - Partly cloudy 10 - - - -
22/09:30am 20.1 SW 7 9 1023.4 - 0.0 - Partly cloudy 10 - - - -
22/09:00am 19.5 SW 5 7 1023.5 - 0.2 - Mostly clear 10 - - - -
22/08:30am 18.4 SW 4 6 1023.2 - 0.2 - - 10 - - - -
22/08:00am 17.7 CALM 0 0 1022.9 - 0.2 - Partly cloudy 10 - - - -
22/07:30am 16.1 CALM 0 0 1022.5 - 0.2 - Partly cloudy 10 - - - -
22/07:00am 16.3 CALM 0 0 1022.2 - 0.2 - Partly cloudy 10 - - - -
22/06:43am 16.1 CALM 0 0 1022.1 - 0.2 - Partly cloudy 10 - - - -
22/06:30am 15.2 W 2 3 1022.0 - 0.0 - Partly cloudy 0.9 - - - -
22/06:16am 15.8 W 1 3 1021.7 - 0.0 - Partly cloudy 5 - - - -
22/06:00am 15.9 WSW 2 4 1021.6 - 0.0 - Cloudy 9 - - - -
22/05:30am 16.5 SW 1 4 1021.5 - 0.0 - Partly cloudy 10 - - - -
22/05:00am 16.9 W 3 4 1021.2 - 0.0 - Partly cloudy 10 - - - -
22/04:30am 16.4 W 5 6 1020.9 - 0.0 - Partly cloudy 10 - - - -
22/04:00am 15.1 CALM 0 0 1020.8 - 0.0 - Partly cloudy 10 - - - -
22/03:30am 15.2 W 3 4 1020.6 - 0.0 - Partly cloudy 10 - - - -
22/03:26am 15.0 W 1 4 1020.6 - 0.0 - Partly cloudy 10 - - - -
22/03:05am 15.2 CALM 0 0 1020.6 - 0.0 - Partly cloudy 5 - - - -
22/03:00am 15.1 CALM 0 0 1020.7 - 0.0 - Partly cloudy 10 - - - -
22/02:56am 14.9 CALM 0 2 1020.7 - 0.0 - Partly cloudy 10 - - - -
22/02:30am 15.7 W 1 3 1020.5 - 0.0 - Partly cloudy 1 - - - -
22/02:20am 15.9 CALM 0 0 1020.6 - 0.0 - Partly cloudy 5 - - - -
22/02:00am 15.7 CALM 0 0 1020.7 - 0.0 - Cloudy 10 - - - -
22/01:49am 15.0 CALM 0 0 1020.7 - 0.0 - Cloudy 7 - - - -
22/01:30am 15.2 CALM 0 0 1020.8 - 0.0 - Partly cloudy 2 - - - -
22/01:20am 15.0 W 1 3 1020.8 - 0.0 - Cloudy 4 - - - -
22/01:04am 15.0 W 1 3 1020.9 - 0.0 - Partly cloudy 10 - - - -
22/01:00am 15.0 CALM 0 3 1020.9 - 0.0 - Partly cloudy 10 - - - -
22/12:34am 15.4 CALM 0 0 1021.1 - 0.0 - Partly cloudy 5 - - - -
22/12:30am 15.1 CALM 0 0 1021.0 - 0.0 - Partly cloudy 10 - - - -
22/12:00am 15.8 CALM 0 0 1021.1 - 0.0 - - 10 - - - -
 
Date/Time
EST
Temp
°C
Wind Pressure Rain since
9am
mm
Weather Cloud Vis
km
Sea
Height
m
Swell
Dir  Spd
kts
Gust
kts
hPa Trend Height
m
Period
s
Dir
21/11:56pm 15.9 CALM 0 3 1021.1 - 0.0 - - 10 - - - -
21/11:30pm 15.7 SW 2 4 1021.1 - 0.0 - Partly cloudy 0.6 - - - -
21/11:00pm 16.1 CALM 0 2 1021.1 - 0.0 - Partly cloudy 2 - - - -
21/10:30pm 15.6 CALM 0 0 1021.0 - 0.0 - - 0.3 - - - -
21/10:22pm 16.1 CALM 0 0 1021.0 - 0.0 - - 5 - - - -
21/10:14pm 16.5 CALM 0 0 1021.1 - 0.0 - - 7 - - - -
21/10:00pm 16.7 CALM 0 0 1021.1 - 0.0 - Partly cloudy 4 - - - -
21/09:53pm 16.6 CALM 0 3 1021.1 - 0.0 - Partly cloudy 5 - - - -
21/09:30pm 17.1 W 1 4 1021.2 - 0.0 - Partly cloudy 10 - - - -
21/09:00pm 17.9 CALM 0 2 1021.2 - 0.0 - Partly cloudy 10 - - - -
21/08:30pm 18.7 CALM 0 4 1021.0 - 0.0 - Partly cloudy 10 - - - -
21/08:00pm 19.2 WSW 3 4 1020.9 - 0.0 - Partly cloudy 10 - - - -
21/07:39pm 19.3 WSW 4 4 1020.8 - 0.0 - Partly cloudy 10 - - - -
21/07:30pm 19.4 SW 2 3 1020.7 - 0.0 - Partly cloudy 10 - - - -
21/07:00pm 19.3 W 3 4 1020.5 - 0.0 - Partly cloudy 10 - - - -
21/06:30pm 19.6 SSW 3 4 1020.3 - 0.0 - Partly cloudy 10 - - - -
21/06:23pm 19.6 SSW 3 4 1020.2 - 0.0 - Partly cloudy 10 - - - -
21/06:00pm 19.5 SSW 5 6 1019.7 - 0.0 - Cloudy 10 - - - -
21/05:30pm 19.8 SSE 4 5 1019.5 - 0.0 - Cloudy 10 - - - -
21/05:00pm 20.1 SSE 5 7 1019.2 - 0.0 - Cloudy 10 - - - -
21/04:30pm 20.4 SSE 5 8 1018.8 - 0.0 - Cloudy 10 - - - -
21/04:00pm 20.7 SSE 6 8 1018.6 - 0.0 - Partly cloudy 10 - - - -
21/03:30pm 21.5 SSE 8 10 1018.5 - 0.0 - - 10 - - - -
21/03:00pm 22.1 SSE 9 11 1018.3 - 0.0 - - 10 - - - -
21/02:30pm 22.3 SE 9 13 1018.2 - 0.0 - - 10 - - - -
21/02:00pm 22.5 SE 9 11 1018.0 - 0.0 - Partly cloudy 10 - - - -
21/01:30pm 22.5 S 6 8 1018.0 - 0.0 - - 10 - - - -
21/01:00pm 22.6 SSE 7 9 1018.1 - 0.0 - Partly cloudy 10 - - - -
21/12:30pm 22.3 SE 6 9 1018.4 - 0.0 - Partly cloudy 10 - - - -
21/12:00pm 23.1 SSW 5 7 1018.9 - 0.0 - Partly cloudy 10 - - - -
21/11:30am 22.2 SW 4 6 1019.4 - 0.0 - Partly cloudy 10 - - - -
21/11:00am 22.4 SSW 1 5 1019.8 - 0.0 - Partly cloudy 10 - - - -
21/10:30am 21.1 SW 3 5 1020.2 - 0.0 - Partly cloudy 10 - - - -
21/10:00am 20.8 NW 4 6 1020.2 - 0.0 - - 10 - - - -
21/09:30am 19.5 WSW 4 5 1020.2 - 0.0 - Partly cloudy 10 - - - -
21/09:00am 19.1 CALM 0 0 1020.0 - 0.0 - Mostly clear 10 - - - -
21/08:30am 18.0 WNW 4 5 1020.0 - 0.0 - Partly cloudy 10 - - - -
21/08:00am 17.0 CALM 0 0 1019.7 - 0.0 - Partly cloudy 10 - - - -
21/07:30am 16.1 W 7 10 1019.3 - 0.0 - Partly cloudy 10 - - - -
21/07:00am 14.7 CALM 0 3 1018.9 - 0.0 - - 10 - - - -
21/06:30am 13.9 CALM 0 4 1018.7 - 0.0 - - 10 - - - -
21/06:00am 14.4 WSW 2 4 1018.2 - 0.0 - - 10 - - - -
21/05:30am 14.9 W 1 3 1018.1 - 0.0 - - 10 - - - -
21/05:00am 15.0 WSW 2 4 1017.9 - 0.0 - Partly cloudy 10 - - - -
21/04:30am 14.6 W 2 5 1017.9 - 0.0 - Partly cloudy 10 - - - -
21/04:15am 13.8 WNW 2 5 1017.8 - 0.0 - Partly cloudy 10 - - - -
21/04:00am 12.8 CALM 0 0 1017.7 - 0.0 - - 1 - - - -
21/03:30am 12.3 CALM 0 0 1017.5 - 0.0 - - 0.5 - - - -
21/03:21am 12.8 CALM 0 0 1017.5 - 0.0 - - 5 - - - -
21/03:00am 13.7 CALM 0 0 1017.4 - 0.0 - Mostly clear 10 - - - -
21/02:32am 14.3 WNW 4 7 1017.4 - 0.0 - Partly cloudy 10 - - - -
21/02:30am 14.3 WNW 5 7 1017.4 - 0.0 - Partly cloudy 10 - - - -
21/02:29am 14.4 WNW 5 8 1017.4 - 0.0 - Partly cloudy 10 - - - -
21/02:00am 13.1 CALM 0 0 1017.4 - 0.0 - Partly cloudy 0.5 - - - -
21/01:55am 12.8 CALM 0 0 1017.3 - 0.0 - Partly cloudy 0.3 - - - -
21/01:41am 12.8 NNE 1 3 1017.2 - 0.0 - - 4 - - - -
21/01:35am 13.3 N 2 4 1017.2 - 0.0 - - 10 - - - -
21/01:30am 13.5 WNW 3 4 1017.3 - 0.0 - - 10 - - - -
21/01:00am 13.4 CALM 0 0 1017.5 - 0.0 - Partly cloudy 1 - - - -
21/12:41am 13.4 W 1 3 1017.7 - 0.0 - Partly cloudy 5 - - - -
21/12:30am 13.4 WNW 2 3 1017.7 - 0.0 - Partly cloudy 10 - - - -
21/12:00am 14.1 CALM 0 0 1017.8 - 0.0 - Partly cloudy 10 - - - -
 
Date/Time
EST
Temp
°C
Wind Pressure Rain since
9am
mm
Weather Cloud Vis
km
Sea
Height
m
Swell
Dir  Spd
kts
Gust
kts
hPa Trend Height
m
Period
s
Dir
20/11:30pm 13.8 WNW 1 3 1017.9 - 0.0 - Partly cloudy 10 - - - -
20/11:18pm 13.8 WNW 3 4 1017.9 - 0.0 - Partly cloudy 10 - - - -
20/11:00pm 14.3 CALM 0 0 1018.0 - 0.0 - - 5 - - - -
20/10:35pm 15.0 WNW 1 3 1018.0 - 0.0 - - 10 - - - -
20/10:30pm 15.1 WNW 1 3 1018.1 - 0.0 - - 10 - - - -
20/10:00pm 14.6 W 2 5 1018.0 - 0.0 - Partly cloudy 0.6 - - - -
20/09:55pm 15.0 CALM 0 4 1018.0 - 0.0 - Partly cloudy 5 - - - -
20/09:34pm 14.7 CALM 0 0 1018.0 - 0.0 - - 10 - - - -
20/09:30pm 15.0 CALM 0 0 1018.0 - 0.0 - - 10 - - - -
20/09:10pm 15.4 CALM 0 0 1018.0 - 0.0 - - 5 - - - -
20/09:00pm 15.6 CALM 0 0 1018.0 - 0.0 - - 10 - - - -
20/08:53pm 15.4 CALM 0 0 1018.0 - 0.0 - - 10 - - - -
20/08:30pm 15.7 CALM 0 0 1018.2 - 0.0 - - 0.7 - - - -
20/08:00pm 16.5 CALM 0 0 1018.1 - 0.0 - Partly cloudy 2 - - - -
20/07:58pm 16.4 CALM 0 0 1018.1 - 0.0 - Partly cloudy 5 - - - -
20/07:30pm 17.0 CALM 0 0 1017.9 - 0.0 - Partly cloudy 10 - - - -
20/07:00pm 17.6 NNW 3 4 1017.9 - 0.0 - Partly cloudy 10 - - - -
20/06:30pm 18.6 N 3 3 1017.6 - 0.0 - Partly cloudy 10 - - - -
20/06:00pm 19.7 NE 4 6 1017.2 - 0.0 - Cloudy 10 - - - -
20/05:30pm 19.9 NNE 7 9 1016.9 - 0.0 - Partly cloudy 10 - - - -
20/05:00pm 20.2 NNE 7 9 1016.7 - 0.0 - Partly cloudy 10 - - - -
20/04:30pm 20.5 NNE 8 11 1016.3 - 0.0 - Partly cloudy 10 - - - -
20/04:00pm 21.0 NNE 9 13 1016.1 - 0.0 - Partly cloudy 10 - - - -
20/03:30pm 20.9 NNE 11 15 1016.0 - 0.0 - Cloudy 10 - - - -
20/03:00pm 21.9 NE 9 12 1015.9 - 0.0 - Partly cloudy 10 - - - -
20/02:30pm 22.7 NE 9 13 1015.7 - 0.0 - Partly cloudy 10 - - - -
20/02:00pm 22.7 NNE 10 13 1015.7 - 0.0 - Partly cloudy 10 - - - -
20/01:30pm 21.9 NNE 10 13 1015.8 - 0.0 - Partly cloudy 10 - - - -
20/01:00pm 21.8 NNE 8 11 1016.0 - 0.0 - Partly cloudy 10 - - - -
20/12:30pm 22.1 NNE 7 11 1016.3 - 0.0 - Partly cloudy 10 - - - -
20/12:00pm 21.7 N 8 11 1016.9 - 0.0 - Cloudy 10 - - - -
20/11:30am 21.3 N 10 15 1017.6 - 0.0 - Partly cloudy 10 - - - -

Other Formats:

Comma delimited format used in spreadsheet applications
http://www.bom.gov.au/fwo/IDN60701/IDN60701.94786.axf

JavaScript Object Notation format (JSON) in row-major order
http://www.bom.gov.au/fwo/IDN60701/IDN60701.94786.json